createdAt,value
2023-05-09T00:01:31.575Z,39.12
2023-05-09T00:03:59.280Z,39.04
2023-05-09T00:06:27.556Z,38.71
2023-05-09T00:08:55.800Z,38.75
2023-05-09T00:11:22.404Z,38.68
2023-05-09T00:13:50.576Z,38.77
2023-05-09T00:16:18.642Z,38.63
2023-05-09T00:18:45.239Z,38.84
2023-05-09T00:21:11.918Z,38.86
2023-05-09T00:23:38.835Z,38.92
2023-05-09T00:26:06.264Z,39.07
2023-05-09T00:28:33.089Z,38.61
2023-05-09T00:30:59.776Z,38.97
2023-05-09T00:33:26.878Z,38.67
2023-05-09T00:35:54.648Z,38.50
2023-05-09T00:38:22.942Z,38.78
2023-05-09T00:40:49.782Z,38.52
2023-05-09T00:43:16.776Z,38.84
2023-05-09T00:45:46.886Z,38.67
2023-05-09T00:48:15.241Z,38.73
2023-05-09T00:50:42.192Z,38.96
2023-05-09T00:53:09.492Z,38.72
2023-05-09T00:55:36.534Z,38.49
2023-05-09T00:58:03.860Z,38.57
2023-05-09T01:00:30.406Z,38.68
2023-05-09T01:02:57.216Z,38.38
2023-05-09T01:05:34.532Z,38.50
2023-05-09T01:08:10.503Z,38.64
2023-05-09T01:10:48.901Z,38.61
2023-05-09T01:13:32.112Z,38.58
2023-05-09T01:16:08.684Z,38.29
2023-05-09T01:18:44.800Z,38.55
2023-05-09T01:21:15.900Z,38.36
2023-05-09T01:23:43.917Z,38.83
2023-05-09T01:26:26.122Z,38.26
2023-05-09T01:29:11.770Z,38.32
2023-05-09T01:31:41.194Z,38.45
2023-05-09T01:34:09.826Z,38.39
2023-05-09T01:36:38.036Z,38.42
2023-05-09T01:39:05.936Z,38.23
2023-05-09T01:41:36.389Z,38.37
2023-05-09T01:44:07.715Z,38.31
2023-05-09T01:46:35.342Z,38.47
2023-05-09T01:49:03.525Z,38.75
2023-05-09T01:51:32.639Z,38.62
2023-05-09T01:54:01.232Z,38.58
2023-05-09T01:56:28.082Z,38.62
2023-05-09T01:58:56.464Z,38.95
2023-05-09T02:01:24.375Z,38.92
2023-05-09T02:03:54.711Z,38.92
2023-05-09T02:06:24.354Z,39.62
2023-05-09T02:08:51.450Z,39.69
2023-05-09T02:11:18.551Z,39.95
2023-05-09T02:13:45.234Z,39.68
2023-05-09T02:16:12.194Z,39.97
2023-05-09T02:18:38.854Z,40.04
2023-05-09T02:21:06.434Z,40.24
2023-05-09T02:23:33.016Z,40.06
2023-05-09T02:25:59.827Z,39.93
2023-05-09T02:28:28.324Z,39.78
2023-05-09T02:30:58.574Z,40.10
2023-05-09T02:33:27.174Z,39.87
2023-05-09T02:35:55.313Z,39.85
2023-05-09T02:38:22.277Z,40.13
2023-05-09T02:40:52.417Z,39.99
2023-05-09T02:43:19.396Z,39.84
2023-05-09T02:45:45.966Z,39.67
2023-05-09T02:48:12.569Z,40.10
2023-05-09T02:50:41.905Z,39.90
2023-05-09T02:53:08.698Z,39.65
2023-05-09T02:55:35.430Z,39.62
2023-05-09T02:58:12.775Z,39.54
2023-05-09T03:00:42.587Z,39.62
2023-05-09T03:03:09.651Z,39.72
2023-05-09T03:05:37.012Z,39.75
2023-05-09T03:08:03.678Z,39.66
2023-05-09T03:10:30.611Z,39.68
2023-05-09T03:12:57.415Z,39.84
2023-05-09T03:15:24.170Z,39.48
2023-05-09T03:17:51.580Z,39.39
2023-05-09T03:20:18.884Z,39.56
2023-05-09T03:22:45.462Z,39.45
2023-05-09T03:25:12.637Z,39.37
2023-05-09T03:27:39.433Z,39.64
2023-05-09T03:30:09.953Z,39.25
2023-05-09T03:32:36.865Z,39.38
2023-05-09T03:35:04.061Z,39.56
2023-05-09T03:37:32.314Z,39.65
2023-05-09T03:39:58.897Z,39.78
2023-05-09T03:42:26.553Z,39.49
2023-05-09T03:44:59.793Z,39.13
2023-05-09T03:47:26.493Z,39.29
2023-05-09T03:49:53.650Z,39.51
2023-05-09T03:52:22.745Z,39.36
2023-05-09T03:54:49.419Z,39.17
2023-05-09T03:57:17.610Z,39.43
2023-05-09T03:59:45.737Z,39.22
2023-05-09T04:02:13.917Z,39.15
2023-05-09T04:04:40.680Z,39.13
2023-05-09T04:07:08.859Z,38.97
2023-05-09T04:09:35.586Z,39.08
2023-05-09T04:12:02.135Z,38.93
2023-05-09T04:14:28.661Z,39.13
2023-05-09T04:16:55.355Z,39.18
2023-05-09T04:19:21.903Z,38.83
2023-05-09T04:21:48.747Z,39.10
2023-05-09T04:24:15.265Z,39.15
2023-05-09T04:26:44.636Z,39.25
2023-05-09T04:29:15.127Z,39.16
2023-05-09T04:31:46.834Z,39.45
2023-05-09T04:34:13.857Z,39.31
2023-05-09T04:36:40.599Z,39.35
2023-05-09T04:39:08.314Z,39.50
2023-05-09T04:41:36.190Z,39.18
2023-05-09T04:44:03.299Z,39.67
2023-05-09T04:46:29.883Z,39.41
2023-05-09T04:48:57.259Z,39.27
2023-05-09T04:51:23.799Z,39.61
2023-05-09T04:53:51.631Z,39.53
2023-05-09T04:56:21.665Z,39.34
2023-05-09T04:58:48.986Z,39.47
2023-05-09T05:01:16.651Z,39.29
2023-05-09T05:03:44.299Z,39.29
2023-05-09T05:06:11.059Z,39.33
2023-05-09T05:08:40.336Z,39.73
2023-05-09T05:11:06.949Z,39.21
2023-05-09T05:13:34.096Z,39.26
2023-05-09T05:16:01.559Z,39.07
2023-05-09T05:18:28.163Z,39.15
2023-05-09T05:20:54.708Z,39.41
2023-05-09T05:23:22.357Z,38.99
2023-05-09T05:25:52.758Z,39.12
2023-05-09T05:28:19.684Z,39.17
2023-05-09T05:30:47.018Z,39.00
2023-05-09T05:33:13.984Z,39.12
2023-05-09T05:35:40.668Z,39.04
2023-05-09T05:38:07.249Z,39.18
2023-05-09T05:40:34.372Z,39.15
2023-05-09T05:43:03.876Z,39.48
2023-05-09T05:45:32.535Z,40.70
2023-05-09T05:48:05.388Z,40.96
2023-05-09T05:50:32.474Z,40.88
2023-05-09T05:52:59.529Z,40.64
2023-05-09T05:55:26.285Z,40.73
2023-05-09T05:57:52.980Z,40.50
2023-05-09T06:00:20.607Z,40.14
2023-05-09T06:02:53.326Z,40.43
2023-05-09T06:05:25.262Z,40.04
2023-05-09T06:07:52.325Z,40.13
2023-05-09T06:10:18.879Z,39.84
2023-05-09T06:12:45.624Z,39.96
2023-05-09T06:15:12.613Z,39.98
2023-05-09T06:17:43.565Z,39.98
2023-05-09T06:20:10.616Z,39.56
2023-05-09T06:22:37.139Z,39.46
2023-05-09T06:25:03.972Z,39.32
2023-05-09T06:27:30.853Z,39.63
2023-05-09T06:29:57.482Z,39.53
2023-05-09T06:32:25.059Z,39.13
2023-05-09T06:34:52.627Z,39.39
2023-05-09T06:37:19.240Z,38.91
2023-05-09T06:39:45.787Z,39.18
2023-05-09T06:42:12.375Z,39.13
2023-05-09T06:44:39.604Z,39.68
2023-05-09T06:47:06.393Z,40.20
2023-05-09T06:49:33.753Z,40.16
2023-05-09T06:52:00.392Z,40.22
2023-05-09T06:54:27.238Z,40.32
2023-05-09T06:56:53.900Z,40.32
2023-05-09T06:59:20.652Z,40.71
2023-05-09T07:01:47.200Z,40.97
2023-05-09T07:04:16.997Z,40.83
2023-05-09T07:06:43.483Z,40.94
2023-05-09T07:09:10.081Z,41.04
2023-05-09T07:11:37.405Z,41.39
2023-05-09T07:14:04.193Z,41.04
2023-05-09T07:16:30.881Z,41.04
2023-05-09T07:18:57.395Z,40.71
2023-05-09T07:21:24.623Z,40.82
2023-05-09T07:23:51.223Z,40.65
2023-05-09T07:26:17.778Z,40.61
2023-05-09T07:28:44.298Z,40.51
2023-05-09T07:31:10.979Z,39.98
2023-05-09T07:33:37.537Z,39.88
2023-05-09T07:36:04.193Z,40.48
2023-05-09T07:38:30.698Z,40.29
2023-05-09T07:40:57.237Z,40.43
2023-05-09T07:43:23.718Z,40.26
2023-05-09T07:45:50.373Z,40.16
2023-05-09T07:48:16.870Z,39.99
2023-05-09T07:50:43.470Z,39.96
2023-05-09T07:53:10.404Z,40.20
2023-05-09T07:55:36.963Z,39.63
2023-05-09T07:58:03.533Z,39.69
2023-05-09T08:00:30.229Z,39.71
2023-05-09T08:02:59.674Z,39.64
2023-05-09T08:05:26.483Z,39.71
2023-05-09T08:07:53.047Z,38.97
2023-05-09T08:10:19.603Z,39.47
2023-05-09T08:12:46.117Z,39.07
2023-05-09T08:15:13.052Z,39.23
2023-05-09T08:17:40.130Z,39.38
2023-05-09T08:20:08.325Z,39.41
2023-05-09T08:22:34.989Z,39.38
2023-05-09T08:25:01.974Z,39.29
2023-05-09T08:27:28.533Z,38.77
2023-05-09T08:29:55.184Z,38.81
2023-05-09T08:32:21.678Z,39.17
2023-05-09T08:34:51.576Z,39.04
2023-05-09T08:37:18.162Z,39.11
2023-05-09T08:39:44.675Z,39.05
2023-05-09T08:42:15.781Z,38.92
2023-05-09T08:44:42.410Z,38.91
2023-05-09T08:47:09.325Z,38.77
2023-05-09T08:49:36.301Z,38.68
2023-05-09T08:52:03.436Z,38.52
2023-05-09T08:54:30.320Z,38.65
2023-05-09T08:56:57.800Z,38.62
2023-05-09T08:59:24.900Z,38.55
2023-05-09T09:01:53.409Z,38.50
2023-05-09T09:04:20.199Z,38.33
2023-05-09T09:06:46.883Z,38.60
2023-05-09T09:09:14.671Z,38.35
2023-05-09T09:11:42.682Z,38.33
2023-05-09T09:14:22.825Z,38.32
2023-05-09T09:16:51.116Z,38.33
2023-05-09T09:19:20.229Z,37.98
2023-05-09T09:21:49.775Z,38.14
2023-05-09T09:24:22.229Z,38.13
2023-05-09T09:26:51.033Z,38.36
2023-05-09T09:29:18.768Z,38.28
2023-05-09T09:31:46.979Z,38.22
2023-05-09T09:34:22.375Z,38.04
2023-05-09T09:36:50.391Z,37.94
2023-05-09T09:39:17.016Z,38.06
2023-05-09T09:41:44.848Z,37.64
2023-05-09T09:44:12.641Z,37.45
2023-05-09T09:46:53.247Z,37.37
2023-05-09T09:49:22.312Z,37.19
2023-05-09T09:51:56.748Z,37.21
2023-05-09T09:54:26.756Z,37.13
2023-05-09T09:56:56.435Z,37.29
2023-05-09T09:59:27.823Z,37.16
2023-05-09T10:01:55.523Z,36.89
2023-05-09T10:04:25.272Z,37.21
2023-05-09T10:06:56.858Z,37.45
2023-05-09T10:09:25.110Z,37.21
2023-05-09T10:11:53.648Z,37.31
2023-05-09T10:14:23.316Z,37.54
2023-05-09T10:16:57.329Z,37.66
2023-05-09T10:19:27.181Z,37.43
2023-05-09T10:21:58.742Z,37.25
2023-05-09T10:24:37.665Z,37.09
2023-05-09T10:27:08.697Z,36.72
2023-05-09T10:29:39.394Z,37.09
2023-05-09T10:32:14.042Z,37.33
2023-05-09T10:34:44.484Z,36.95
2023-05-09T10:37:12.580Z,37.15
2023-05-09T10:39:39.514Z,36.82
2023-05-09T10:42:07.577Z,36.60
2023-05-09T10:44:35.041Z,36.24
2023-05-09T10:51:55.329Z,36.43
2023-05-09T10:54:31.050Z,36.62
2023-05-09T10:56:57.990Z,36.37
2023-05-09T10:59:46.525Z,36.32
2023-05-09T11:02:15.619Z,36.76
2023-05-09T11:04:42.259Z,36.86
2023-05-09T11:07:26.196Z,36.59
2023-05-09T11:10:06.832Z,36.95
2023-05-09T11:12:34.093Z,37.25
2023-05-09T11:15:08.039Z,37.38
2023-05-09T11:17:38.521Z,38.18
2023-05-09T11:20:06.480Z,38.47
2023-05-09T11:22:44.979Z,38.75
2023-05-09T11:25:13.784Z,39.09
2023-05-09T11:27:48.640Z,39.46
2023-05-09T11:30:20.116Z,39.38
2023-05-09T11:32:51.399Z,39.40
2023-05-09T11:37:49.537Z,39.54
2023-05-09T11:40:19.147Z,39.28
2023-05-09T11:42:56.191Z,39.34
2023-05-09T11:45:28.199Z,39.44
2023-05-09T11:47:55.064Z,39.25
2023-05-09T11:50:21.685Z,39.34
2023-05-09T11:52:51.588Z,39.08
2023-05-09T11:55:20.329Z,39.20
2023-05-09T11:57:52.262Z,39.48
2023-05-09T12:00:24.007Z,39.83
2023-05-09T12:02:51.799Z,39.80
2023-05-09T12:05:22.890Z,39.75
2023-05-09T12:07:50.056Z,39.90
2023-05-09T12:10:20.476Z,40.17
2023-05-09T12:12:52.801Z,39.77
2023-05-09T12:15:21.461Z,39.86
2023-05-09T12:18:01.356Z,39.98
2023-05-09T12:20:28.656Z,40.16
2023-05-09T12:22:55.839Z,40.32
2023-05-09T12:25:22.698Z,40.04
2023-05-09T12:27:49.220Z,39.93
2023-05-09T12:30:16.329Z,39.56
2023-05-09T12:32:43.633Z,39.85
2023-05-09T12:35:12.073Z,39.75
2023-05-09T12:37:39.168Z,39.88
2023-05-09T12:40:12.455Z,39.98
2023-05-09T12:42:40.012Z,39.84
2023-05-09T12:45:11.190Z,39.49
2023-05-09T12:47:39.049Z,38.94
2023-05-09T12:50:06.973Z,38.29
2023-05-09T12:52:35.359Z,35.64
2023-05-09T12:55:15.216Z,33.15
2023-05-09T12:57:43.970Z,31.85
2023-05-09T13:00:12.070Z,30.83
2023-05-09T13:02:42.345Z,29.99
2023-05-09T13:05:16.012Z,29.05
2023-05-09T13:07:47.736Z,28.84
2023-05-09T13:10:15.344Z,28.86
2023-05-09T13:12:48.265Z,29.82
2023-05-09T13:15:22.514Z,30.70
2023-05-09T13:17:51.081Z,31.55
2023-05-09T13:20:18.838Z,32.66
2023-05-09T13:22:46.332Z,33.75
2023-05-09T13:25:13.567Z,34.21
2023-05-09T13:27:40.308Z,34.43
2023-05-09T13:30:07.774Z,35.10
2023-05-09T13:32:35.110Z,35.28
2023-05-09T13:35:01.836Z,35.42
2023-05-09T13:37:28.581Z,35.59
2023-05-09T13:39:55.504Z,35.65
2023-05-09T13:42:22.107Z,35.26
2023-05-09T13:44:48.751Z,34.17
2023-05-09T13:47:15.655Z,33.54
2023-05-09T13:49:42.121Z,33.14
2023-05-09T13:52:08.988Z,32.79
2023-05-09T13:54:35.680Z,33.12
2023-05-09T13:57:05.922Z,33.47
2023-05-09T13:59:34.697Z,33.78
2023-05-09T14:02:01.693Z,34.32
2023-05-09T14:04:29.709Z,34.46
2023-05-09T14:06:56.356Z,34.70
2023-05-09T14:09:23.217Z,34.80
2023-05-09T14:11:51.527Z,35.02
2023-05-09T14:14:21.924Z,35.45
2023-05-09T14:16:49.310Z,35.53
2023-05-09T14:19:16.886Z,36.16
2023-05-09T14:21:44.719Z,36.35
2023-05-09T14:24:14.340Z,35.95
2023-05-09T14:26:42.515Z,36.46
2023-05-09T14:29:09.301Z,36.65
2023-05-09T14:31:36.062Z,36.95
2023-05-09T14:34:06.166Z,37.09
2023-05-09T14:36:33.077Z,37.44
2023-05-09T14:38:59.613Z,37.42
2023-05-09T14:41:26.773Z,37.61
2023-05-09T14:43:53.426Z,37.87
2023-05-09T14:46:20.208Z,38.00
2023-05-09T14:48:46.909Z,38.04
2023-05-09T14:51:14.200Z,38.28
2023-05-09T14:53:44.060Z,38.25
2023-05-09T14:56:13.382Z,37.16
2023-05-09T14:58:39.946Z,36.40
2023-05-09T15:01:06.648Z,35.87
2023-05-09T15:03:33.190Z,35.41
2023-05-09T15:05:59.824Z,34.91
2023-05-09T15:08:27.022Z,34.88
2023-05-09T15:10:56.402Z,34.61
2023-05-09T15:13:23.415Z,34.35
2023-05-09T15:15:49.962Z,34.08
2023-05-09T15:18:18.332Z,34.14
2023-05-09T15:20:44.946Z,34.31
2023-05-09T15:23:13.108Z,33.76
2023-05-09T15:25:42.984Z,33.68
2023-05-09T15:28:09.473Z,33.48
2023-05-09T15:30:38.306Z,33.55
2023-05-09T15:33:05.297Z,33.46
2023-05-09T15:35:31.900Z,33.48
2023-05-09T15:37:58.721Z,33.42
2023-05-09T15:40:25.608Z,33.34
2023-05-09T15:42:52.226Z,33.31
2023-05-09T15:45:18.807Z,33.39
2023-05-09T15:47:45.532Z,33.34
2023-05-09T15:50:12.881Z,33.44
2023-05-09T15:52:39.727Z,33.43
2023-05-09T15:55:07.167Z,33.41
2023-05-09T15:57:35.162Z,33.38
2023-05-09T16:00:01.732Z,33.32
2023-05-09T16:02:39.058Z,33.09
2023-05-09T16:05:06.209Z,33.12
2023-05-09T16:07:34.665Z,33.29
2023-05-09T16:10:02.193Z,33.49
2023-05-09T16:12:28.800Z,33.45
2023-05-09T16:14:55.441Z,33.50
2023-05-09T16:17:21.936Z,33.25
2023-05-09T16:19:48.735Z,33.33
2023-05-09T16:22:15.220Z,33.52
2023-05-09T16:24:41.957Z,33.60
2023-05-09T16:27:08.532Z,33.83
2023-05-09T16:29:35.114Z,34.11
2023-05-09T16:32:04.127Z,34.19
2023-05-09T16:34:30.797Z,34.02
2023-05-09T16:36:57.379Z,34.21
2023-05-09T16:39:23.995Z,33.81
2023-05-09T16:41:50.524Z,33.77
2023-05-09T16:44:17.257Z,33.80
2023-05-09T16:46:43.785Z,33.75
2023-05-09T16:49:11.089Z,33.80
2023-05-09T16:51:37.673Z,33.93
2023-05-09T16:54:04.261Z,34.19
2023-05-09T16:56:30.859Z,34.32
2023-05-09T16:58:57.397Z,34.52
2023-05-09T17:01:23.946Z,34.49
2023-05-09T17:03:51.143Z,34.32
2023-05-09T17:06:18.455Z,34.29
2023-05-09T17:08:46.155Z,34.41
2023-05-09T17:11:15.488Z,34.26
2023-05-09T17:13:44.734Z,34.08
2023-05-09T17:16:11.276Z,34.06
2023-05-09T17:18:38.490Z,34.14
2023-05-09T17:21:05.440Z,33.95
2023-05-09T17:23:32.434Z,33.79
2023-05-09T17:25:59.134Z,33.95
2023-05-09T17:28:25.696Z,33.96
2023-05-09T17:30:52.491Z,33.83
2023-05-09T17:33:19.337Z,33.81
2023-05-09T17:35:49.413Z,33.77
2023-05-09T17:38:16.145Z,33.88
2023-05-09T17:40:43.369Z,33.80
2023-05-09T17:43:10.577Z,34.00
2023-05-09T17:45:38.009Z,33.99
2023-05-09T17:48:04.859Z,34.11
2023-05-09T17:50:32.942Z,34.00
2023-05-09T17:52:59.547Z,34.21
2023-05-09T17:55:26.191Z,34.15
2023-05-09T17:57:52.873Z,34.09
2023-05-09T18:00:19.708Z,34.22
2023-05-09T18:02:48.103Z,34.31
2023-05-09T18:05:16.503Z,34.29
2023-05-09T18:07:43.740Z,34.49
2023-05-09T18:10:10.868Z,34.32
2023-05-09T18:12:37.567Z,34.39
2023-05-09T18:15:05.937Z,34.59
2023-05-09T18:17:37.840Z,34.33
2023-05-09T18:22:19.360Z,34.40
2023-05-09T18:24:46.193Z,34.42
2023-05-09T18:27:12.814Z,34.53
2023-05-09T18:29:39.628Z,34.54
2023-05-09T18:32:06.897Z,34.48
2023-05-09T18:34:33.841Z,34.43
2023-05-09T18:37:00.352Z,34.70
2023-05-09T18:39:27.545Z,34.56
2023-05-09T18:41:54.292Z,34.59
2023-05-09T18:44:20.878Z,34.71
2023-05-09T18:46:47.429Z,34.68
2023-05-09T18:49:18.541Z,34.57
2023-05-09T18:51:45.327Z,34.64
2023-05-09T18:54:14.757Z,34.72
2023-05-09T18:56:43.992Z,34.82
2023-05-09T18:59:16.466Z,34.65
2023-05-09T19:01:46.024Z,34.90
2023-05-09T19:04:14.037Z,34.75
2023-05-09T19:06:42.178Z,34.96
2023-05-09T19:09:08.839Z,35.05
2023-05-09T19:11:35.875Z,34.94
2023-05-09T19:14:05.270Z,34.95
2023-05-09T19:16:32.197Z,34.98
2023-05-09T19:19:10.285Z,34.89
2023-05-09T19:21:41.707Z,34.74
2023-05-09T19:24:09.329Z,34.86
2023-05-09T19:26:35.953Z,34.74
2023-05-09T19:29:10.086Z,34.73
2023-05-09T19:31:37.463Z,34.76
2023-05-09T19:34:04.083Z,34.92
2023-05-09T19:36:34.108Z,34.90
2023-05-09T19:39:00.680Z,34.84
2023-05-09T19:41:27.296Z,34.91
2023-05-09T19:43:58.001Z,34.52
2023-05-09T19:46:26.767Z,34.56
2023-05-09T19:48:58.295Z,34.74
2023-05-09T19:51:25.126Z,34.16
2023-05-09T19:53:59.293Z,34.09
2023-05-09T19:56:26.043Z,34.16
2023-05-09T19:58:54.891Z,33.90
2023-05-09T20:01:26.126Z,34.19
2023-05-09T20:03:53.696Z,34.09
2023-05-09T20:06:20.843Z,34.19
2023-05-09T20:08:47.653Z,33.96
2023-05-09T20:11:15.181Z,34.17
2023-05-09T20:13:43.095Z,34.16
2023-05-09T20:16:12.897Z,34.13
2023-05-09T20:18:39.667Z,34.13
2023-05-09T20:21:09.711Z,34.45
2023-05-09T20:23:37.061Z,34.32
2023-05-09T20:26:03.864Z,34.47
2023-05-09T20:28:31.933Z,34.27
2023-05-09T20:30:58.495Z,34.34
2023-05-09T20:33:25.049Z,34.53
2023-05-09T20:35:51.536Z,34.96
2023-05-09T20:38:18.106Z,35.03
2023-05-09T20:40:45.914Z,35.52
2023-05-09T20:43:12.547Z,35.53
2023-05-09T20:45:39.194Z,35.89
2023-05-09T20:48:06.644Z,35.97
2023-05-09T20:50:35.725Z,36.04
2023-05-09T20:53:04.501Z,35.99
2023-05-09T20:55:30.994Z,36.10
2023-05-09T20:57:57.916Z,36.24
2023-05-09T21:00:24.612Z,36.10
2023-05-09T21:02:51.271Z,36.02
2023-05-09T21:05:17.788Z,36.36
2023-05-09T21:07:44.404Z,36.26
2023-05-09T21:10:11.351Z,36.08
2023-05-09T21:12:37.965Z,36.02
2023-05-09T21:15:05.208Z,36.24
2023-05-09T21:17:32.065Z,36.13
2023-05-09T21:19:58.973Z,36.08
2023-05-09T21:22:25.697Z,36.17
2023-05-09T21:24:52.717Z,36.19
2023-05-09T21:27:19.540Z,36.26
2023-05-09T21:29:49.264Z,36.18
2023-05-09T21:32:16.950Z,36.21
2023-05-09T21:34:43.502Z,36.20
2023-05-09T21:37:10.153Z,36.26
2023-05-09T21:39:36.661Z,36.24
2023-05-09T21:42:03.345Z,36.46
2023-05-09T21:44:29.937Z,36.35
2023-05-09T21:46:56.717Z,36.31
2023-05-09T21:49:27.185Z,36.13
2023-05-09T21:51:54.027Z,36.30
2023-05-09T21:54:20.947Z,36.34
2023-05-09T21:56:47.582Z,36.26
2023-05-09T21:59:14.197Z,36.33
2023-05-09T22:01:41.773Z,36.28
2023-05-09T22:06:34.953Z,35.96
2023-05-09T22:09:01.737Z,35.81
2023-05-09T22:11:28.246Z,35.94
2023-05-09T22:13:55.403Z,35.73
2023-05-09T22:16:22.425Z,35.75
2023-05-09T22:18:49.368Z,35.51
2023-05-09T22:21:16.084Z,35.30
2023-05-09T22:23:43.704Z,35.26
2023-05-09T22:26:10.354Z,35.19
2023-05-09T22:28:37.097Z,35.26
2023-05-09T22:31:06.677Z,35.19
2023-05-09T22:33:34.200Z,35.17
2023-05-09T22:36:01.159Z,35.17
2023-05-09T22:38:27.775Z,35.09
2023-05-09T22:40:54.283Z,35.09
2023-05-09T22:43:21.570Z,35.15
2023-05-09T22:45:48.146Z,35.24
2023-05-09T22:48:15.645Z,35.34
2023-05-09T22:50:42.261Z,35.18
2023-05-09T22:53:09.242Z,35.04
2023-05-09T22:55:36.480Z,35.13
2023-05-09T22:58:03.810Z,35.32
2023-05-09T23:00:30.578Z,35.02
2023-05-09T23:02:59.241Z,35.27
2023-05-09T23:05:25.983Z,35.19
2023-05-09T23:07:52.689Z,35.15
2023-05-09T23:10:19.323Z,35.24
2023-05-09T23:12:45.950Z,35.25
2023-05-09T23:15:12.592Z,35.25
2023-05-09T23:17:39.137Z,35.23
2023-05-09T23:20:06.337Z,35.40
2023-05-09T23:22:34.598Z,35.32
2023-05-09T23:25:01.174Z,35.20
2023-05-09T23:27:28.390Z,35.08
2023-05-09T23:29:55.258Z,35.05
2023-05-09T23:32:21.986Z,35.25
2023-05-09T23:34:48.621Z,35.29
2023-05-09T23:37:15.262Z,35.05
2023-05-09T23:39:41.808Z,35.34
2023-05-09T23:42:08.503Z,35.23
2023-05-09T23:44:35.281Z,35.09
2023-05-09T23:47:02.475Z,35.23
2023-05-09T23:49:29.205Z,35.02
2023-05-09T23:51:55.906Z,35.00
2023-05-09T23:54:24.271Z,35.06
2023-05-09T23:56:50.929Z,35.28
2023-05-09T23:59:17.619Z,35.28
